createdAt,value
2019-05-21T00:00:25.675Z,75.64
2019-05-21T00:02:53.568Z,75.49
2019-05-21T00:05:40.237Z,75.49
2019-05-21T00:08:07.819Z,75.70
2019-05-21T00:13:13.339Z,76.06
2019-05-21T00:15:40.910Z,76.24
2019-05-21T00:18:27.511Z,76.32
2019-05-21T00:20:55.034Z,76.32
2019-05-21T00:23:22.714Z,76.71
2019-05-21T00:28:43.285Z,77.07
2019-05-21T00:31:10.864Z,77.07
2019-05-21T00:33:38.524Z,77.59
2019-05-21T00:36:24.934Z,77.52
2019-05-21T00:38:52.475Z,77.52
2019-05-21T00:41:20.345Z,77.76
2019-05-21T00:43:48.131Z,78.15
2019-05-21T00:46:17.352Z,78.15
2019-05-21T00:49:03.973Z,78.16
2019-05-21T00:51:31.478Z,78.16
2019-05-21T00:53:59.057Z,78.45
2019-05-21T00:56:26.697Z,78.49
2019-05-21T00:59:13.059Z,78.56
2019-05-21T01:01:40.985Z,78.66
2019-05-21T01:04:08.509Z,78.84
2019-05-21T01:06:54.862Z,78.83
2019-05-21T01:09:22.414Z,78.86
2019-05-21T01:11:50.133Z,78.84
2019-05-21T01:14:36.404Z,78.89
2019-05-21T01:17:03.954Z,79.18
2019-05-21T01:19:50.612Z,79.00
2019-05-21T01:22:36.919Z,79.04
2019-05-21T01:25:04.668Z,79.04
2019-05-21T01:27:32.228Z,79.57
2019-05-21T01:29:59.881Z,79.57
2019-05-21T01:32:27.455Z,79.33
2019-05-21T01:34:55.346Z,79.37
2019-05-21T01:37:34.636Z,79.46
2019-05-21T01:39:52.285Z,79.62
2019-05-21T01:42:20.103Z,79.67
2019-05-21T01:44:49.317Z,79.63
2019-05-21T01:47:16.997Z,79.56
2019-05-21T01:49:44.510Z,79.56
2019-05-21T01:52:30.920Z,79.63
2019-05-21T01:54:58.520Z,79.74
2019-05-21T01:57:44.919Z,79.84
2019-05-21T02:00:12.579Z,79.92
2019-05-21T02:02:40.135Z,79.96
2019-05-21T02:05:32.979Z,79.92
2019-05-21T02:07:55.838Z,79.91
2019-05-21T02:13:23.335Z,79.84
2019-05-21T02:15:41.150Z,79.98
2019-05-21T02:18:09.926Z,79.98
2019-05-21T02:20:37.508Z,79.78
2019-05-21T02:23:05.161Z,79.78
2019-05-21T02:25:32.822Z,79.84
2019-05-21T02:28:19.224Z,79.84
2019-05-21T02:30:47.005Z,79.70
2019-05-21T02:33:33.726Z,79.74
2019-05-21T02:36:01.476Z,79.74
2019-05-21T02:38:47.895Z,80.16
2019-05-21T02:41:15.553Z,80.16
2019-05-21T02:43:43.185Z,80.11
2019-05-21T02:46:10.810Z,80.06
2019-05-21T02:48:57.241Z,80.06
2019-05-21T02:51:43.651Z,80.03
2019-05-21T03:02:38.670Z,79.99
2019-05-21T03:05:06.332Z,79.90
2019-05-21T03:07:33.973Z,79.90
2019-05-21T03:10:20.419Z,79.96
2019-05-21T03:12:48.214Z,79.95
2019-05-21T03:15:15.956Z,79.93
2019-05-21T03:17:43.619Z,79.96
2019-05-21T03:20:11.289Z,80.10
2019-05-21T03:22:40.587Z,80.10
2019-05-21T03:25:08.260Z,80.04
2019-05-21T03:27:36.187Z,79.99
2019-05-21T03:30:03.947Z,79.96
2019-05-21T03:32:31.641Z,80.00
2019-05-21T03:34:59.232Z,80.04
2019-05-21T03:37:45.660Z,80.00
2019-05-21T03:40:13.269Z,79.94
2019-05-21T03:42:41.300Z,79.89
2019-05-21T03:45:27.727Z,79.83
2019-05-21T03:47:55.289Z,79.80
2019-05-21T03:50:23.070Z,79.79
2019-05-21T03:52:50.998Z,79.77
2019-05-21T03:55:37.369Z,79.73
2019-05-21T03:58:05.095Z,79.73
2019-05-21T04:00:51.516Z,79.71
2019-05-21T04:03:19.264Z,79.72
2019-05-21T04:08:38.540Z,79.71
2019-05-21T04:11:06.091Z,79.71
2019-05-21T04:13:52.555Z,79.63
2019-05-21T04:16:39.001Z,79.63
2019-05-21T04:19:25.422Z,79.69
2019-05-21T04:22:11.828Z,79.49
2019-05-21T04:24:39.578Z,79.49
2019-05-21T04:29:39.805Z,79.67
2019-05-21T04:34:55.710Z,79.69
2019-05-21T04:37:23.266Z,79.80
2019-05-21T04:40:09.711Z,79.92
2019-05-21T04:42:37.824Z,79.92
2019-05-21T04:45:05.415Z,79.88
2019-05-21T04:47:51.834Z,79.89
2019-05-21T04:50:19.579Z,79.89
2019-05-21T04:53:05.989Z,79.73
2019-05-21T04:55:33.640Z,79.73
2019-05-21T04:58:20.116Z,79.87
2019-05-21T05:00:47.804Z,79.89
2019-05-21T05:03:34.262Z,80.10
2019-05-21T05:06:13.718Z,80.10
2019-05-21T05:08:31.216Z,80.43
2019-05-21T05:11:17.644Z,80.45
2019-05-21T05:13:45.303Z,80.45
2019-05-21T05:16:31.753Z,80.50
2019-05-21T05:19:01.252Z,80.51
2019-05-21T05:21:47.594Z,80.76
2019-05-21T05:24:15.321Z,80.76
2019-05-21T05:29:48.164Z,80.61
2019-05-21T05:32:15.783Z,80.61
2019-05-21T05:35:02.233Z,80.50
2019-05-21T05:40:45.019Z,80.53
2019-05-21T05:43:14.680Z,80.85
2019-05-21T05:45:43.645Z,80.59
2019-05-21T05:48:11.307Z,80.59
2019-05-21T05:50:47.273Z,80.31
2019-05-21T05:53:13.555Z,80.31
2019-05-21T05:55:41.192Z,80.37
2019-05-21T05:58:08.803Z,80.37
2019-05-21T06:00:37.292Z,80.38
2019-05-21T06:03:12.553Z,80.32
2019-05-21T06:05:40.450Z,80.26
2019-05-21T06:08:08.018Z,80.25
2019-05-21T06:10:39.819Z,80.25
2019-05-21T06:13:05.314Z,80.28
2019-05-21T06:15:32.992Z,80.28
2019-05-21T06:18:00.638Z,80.17
2019-05-21T06:20:30.542Z,80.17
2019-05-21T06:22:58.116Z,80.55
2019-05-21T06:25:28.433Z,80.55
2019-05-21T06:27:56.279Z,80.07
2019-05-21T06:30:24.019Z,80.05
2019-05-21T06:32:51.605Z,80.02
2019-05-21T06:35:19.522Z,80.01
2019-05-21T06:37:47.215Z,80.04
2019-05-21T06:40:14.774Z,80.05
2019-05-21T06:42:42.465Z,80.05
2019-05-21T06:45:13.155Z,80.02
2019-05-21T06:47:41.074Z,80.01
2019-05-21T06:50:08.978Z,80.03
2019-05-21T06:52:36.606Z,80.25
2019-05-21T06:55:07.256Z,80.37
2019-05-21T06:57:34.878Z,80.52
2019-05-21T07:00:02.526Z,80.69
2019-05-21T07:02:30.433Z,80.56
2019-05-21T07:04:58.107Z,80.56
2019-05-21T07:07:26.025Z,80.76
2019-05-21T07:09:54.255Z,80.73
2019-05-21T07:12:24.919Z,80.70
2019-05-21T07:14:52.508Z,80.71
2019-05-21T07:17:20.889Z,80.79
2019-05-21T07:19:48.516Z,80.85
2019-05-21T07:22:16.076Z,80.85
2019-05-21T07:24:43.956Z,80.78
2019-05-21T07:27:11.560Z,80.78
2019-05-21T07:29:39.156Z,80.60
2019-05-21T07:32:07.051Z,80.55
2019-05-21T07:34:34.738Z,80.54
2019-05-21T07:37:02.379Z,80.54
2019-05-21T07:39:30.251Z,80.49
2019-05-21T07:41:59.091Z,80.32
2019-05-21T07:44:29.320Z,80.32
2019-05-21T07:46:57.248Z,80.43
2019-05-21T07:49:24.949Z,80.50
2019-05-21T07:51:52.609Z,80.50
2019-05-21T07:54:20.482Z,80.38
2019-05-21T07:56:48.135Z,80.31
2019-05-21T07:59:18.199Z,80.25
2019-05-21T08:01:46.078Z,80.13
2019-05-21T08:04:13.991Z,80.13
2019-05-21T08:06:44.307Z,80.08
2019-05-21T08:09:14.483Z,80.03
2019-05-21T08:11:46.187Z,79.96
2019-05-21T08:14:12.355Z,79.82
2019-05-21T08:16:40.191Z,79.34
2019-05-21T08:19:07.799Z,79.34
2019-05-21T08:21:35.349Z,79.71
2019-05-21T08:24:03.284Z,79.66
2019-05-21T08:26:32.238Z,79.58
2019-05-21T08:28:59.817Z,79.50
2019-05-21T08:31:27.680Z,79.47
2019-05-21T08:33:56.478Z,79.42
2019-05-21T08:36:24.042Z,79.82
2019-05-21T08:38:55.913Z,79.82
2019-05-21T08:41:24.633Z,79.23
2019-05-21T08:43:52.154Z,79.17
2019-05-21T08:46:20.141Z,79.14
2019-05-21T08:48:47.720Z,79.06
2019-05-21T08:51:15.387Z,79.06
2019-05-21T08:53:43.234Z,79.19
2019-05-21T08:56:10.902Z,79.19
2019-05-21T08:58:38.586Z,79.19
2019-05-21T09:01:06.504Z,79.13
2019-05-21T09:03:34.220Z,79.13
2019-05-21T09:06:01.821Z,79.27
2019-05-21T09:08:29.708Z,79.33
2019-05-21T09:10:57.260Z,79.34
2019-05-21T09:13:24.919Z,79.39
2019-05-21T09:15:52.779Z,79.55
2019-05-21T09:18:20.727Z,79.73
2019-05-21T09:20:48.346Z,79.73
2019-05-21T09:23:16.182Z,79.53
2019-05-21T09:25:43.796Z,79.52
2019-05-21T09:28:11.742Z,79.52
2019-05-21T09:30:39.639Z,79.59
2019-05-21T09:33:07.265Z,79.55
2019-05-21T09:35:34.870Z,79.55
2019-05-21T09:38:05.799Z,79.66
2019-05-21T09:40:33.416Z,79.68
2019-05-21T09:43:01.757Z,79.65
2019-05-21T09:45:31.408Z,79.73
2019-05-21T09:47:59.085Z,79.73
2019-05-21T09:50:26.700Z,79.70
2019-05-21T09:52:54.600Z,79.70
2019-05-21T09:55:22.339Z,79.75
2019-05-21T09:58:02.568Z,79.79
2019-05-21T10:00:47.946Z,79.79
2019-05-21T10:03:17.412Z,79.58
2019-05-21T10:05:44.985Z,79.76
2019-05-21T10:08:15.591Z,80.03
2019-05-21T10:10:43.200Z,79.88
2019-05-21T10:13:12.960Z,79.88
2019-05-21T10:15:40.853Z,79.81
2019-05-21T10:18:14.313Z,79.87
2019-05-21T10:20:48.654Z,79.76
2019-05-21T10:23:17.691Z,79.76
2019-05-21T10:25:46.820Z,79.90
2019-05-21T10:28:14.798Z,79.90
2019-05-21T10:30:42.415Z,79.95
2019-05-21T10:33:10.019Z,79.93
2019-05-21T10:35:38.003Z,79.90
2019-05-21T10:38:05.581Z,79.95
2019-05-21T10:40:36.635Z,80.00
2019-05-21T10:43:04.556Z,80.02
2019-05-21T10:45:38.179Z,80.01
2019-05-21T10:48:11.133Z,79.98
2019-05-21T10:50:39.136Z,79.74
2019-05-21T10:53:10.444Z,80.01
2019-05-21T10:55:44.324Z,80.01
2019-05-21T10:58:10.595Z,80.02
2019-05-21T11:00:41.795Z,80.08
2019-05-21T11:03:13.886Z,80.08
2019-05-21T11:05:44.781Z,80.40
2019-05-21T11:08:24.939Z,80.40
2019-05-21T11:10:52.193Z,80.35
2019-05-21T11:13:20.085Z,80.65
2019-05-21T11:16:11.847Z,80.68
2019-05-21T11:18:43.978Z,80.68
2019-05-21T11:21:16.436Z,80.75
2019-05-21T11:23:44.185Z,80.72
2019-05-21T11:26:19.041Z,80.72
2019-05-21T11:28:50.438Z,80.69
2019-05-21T11:31:20.511Z,80.63
2019-05-21T11:33:48.530Z,80.53
2019-05-21T11:36:16.157Z,80.53
2019-05-21T11:38:48.580Z,80.48
2019-05-21T11:41:19.022Z,80.42
2019-05-21T11:43:46.646Z,80.33
2019-05-21T11:46:14.568Z,80.12
2019-05-21T11:48:48.127Z,80.12
2019-05-21T11:51:12.794Z,80.05
2019-05-21T11:53:41.416Z,80.04
2019-05-21T11:56:11.064Z,80.09
2019-05-21T11:58:39.756Z,80.02
2019-05-21T12:01:08.083Z,79.99
2019-05-21T12:03:37.483Z,80.00
2019-05-21T12:06:26.500Z,80.02
2019-05-21T12:09:02.053Z,80.08
2019-05-21T12:11:34.163Z,80.10
2019-05-21T12:14:05.936Z,80.08
2019-05-21T12:16:33.800Z,80.08
2019-05-21T12:19:01.417Z,80.13
2019-05-21T12:21:32.110Z,80.15
2019-05-21T12:24:01.714Z,80.17
2019-05-21T12:26:29.362Z,80.02
2019-05-21T12:28:56.945Z,80.02
2019-05-21T12:31:24.777Z,80.11
2019-05-21T12:33:57.148Z,80.11
2019-05-21T12:36:28.751Z,80.12
2019-05-21T12:39:11.549Z,80.13
2019-05-21T12:41:25.902Z,79.97
2019-05-21T12:43:53.744Z,79.97
2019-05-21T12:46:21.409Z,80.07
2019-05-21T12:48:49.013Z,80.07
2019-05-21T12:51:19.889Z,80.03
2019-05-21T12:53:47.551Z,79.98
2019-05-21T12:56:15.373Z,79.98
2019-05-21T12:58:43.266Z,80.08
2019-05-21T13:01:10.921Z,80.33
2019-05-21T13:03:38.629Z,80.32
2019-05-21T13:06:06.625Z,80.32
2019-05-21T13:08:34.286Z,80.10
2019-05-21T13:11:02.316Z,79.91
2019-05-21T13:13:30.203Z,79.91
2019-05-21T13:16:03.544Z,80.04
2019-05-21T13:18:36.372Z,80.00
2019-05-21T13:21:08.564Z,79.89
2019-05-21T13:23:38.483Z,79.90
2019-05-21T13:26:08.525Z,79.84
2019-05-21T13:28:35.704Z,79.79
2019-05-21T13:31:03.336Z,79.74
2019-05-21T13:33:31.294Z,79.69
2019-05-21T13:35:59.184Z,79.70
2019-05-21T13:38:26.799Z,79.73
2019-05-21T13:40:56.261Z,79.74
2019-05-21T13:43:24.107Z,79.71
2019-05-21T13:45:56.071Z,79.64
2019-05-21T13:48:23.800Z,79.48
2019-05-21T13:51:02.816Z,79.29
2019-05-21T13:53:26.231Z,79.11
2019-05-21T13:55:55.107Z,78.99
2019-05-21T13:58:22.827Z,78.99
2019-05-21T14:00:56.217Z,78.99
2019-05-21T14:03:24.161Z,78.98
2019-05-21T14:05:51.815Z,79.00
2019-05-21T14:08:22.665Z,78.86
2019-05-21T14:10:50.481Z,78.76
2019-05-21T14:13:27.951Z,78.58
2019-05-21T14:15:55.629Z,78.53
2019-05-21T14:18:23.506Z,78.53
2019-05-21T14:20:51.160Z,78.49
2019-05-21T14:23:23.122Z,78.34
2019-05-21T14:25:48.457Z,78.37
2019-05-21T14:28:19.068Z,78.37
2019-05-21T14:30:46.745Z,78.62
2019-05-21T14:33:21.111Z,79.10
2019-05-21T14:35:46.143Z,79.10
2019-05-21T14:38:13.715Z,79.29
2019-05-21T14:40:41.617Z,79.69
2019-05-21T14:43:13.456Z,79.37
2019-05-21T14:45:42.278Z,79.48
2019-05-21T14:48:10.089Z,79.48
2019-05-21T14:50:38.778Z,79.37
2019-05-21T14:53:06.375Z,79.23
2019-05-21T14:55:38.598Z,79.15
2019-05-21T14:58:10.935Z,79.17
2019-05-21T15:00:38.759Z,79.15
2019-05-21T15:03:06.479Z,79.16
2019-05-21T15:05:37.206Z,79.37
2019-05-21T15:08:06.938Z,79.53
2019-05-21T15:10:47.764Z,79.58
2019-05-21T15:13:06.465Z,79.58
2019-05-21T15:15:35.965Z,79.71
2019-05-21T15:18:04.431Z,79.72
2019-05-21T15:20:55.557Z,79.77
2019-05-21T15:23:23.218Z,79.63
2019-05-21T15:25:50.869Z,79.63
2019-05-21T15:28:24.023Z,79.99
2019-05-21T15:30:51.632Z,79.99
2019-05-21T15:33:31.336Z,80.19
2019-05-21T15:36:07.156Z,80.19
2019-05-21T15:38:50.157Z,80.09
2019-05-21T15:41:24.867Z,80.02
2019-05-21T15:43:57.481Z,80.41
2019-05-21T15:46:25.150Z,80.41
2019-05-21T15:48:55.179Z,80.16
2019-05-21T15:51:23.332Z,80.16
2019-05-21T15:53:51.064Z,80.19
2019-05-21T15:56:18.716Z,80.19
2019-05-21T15:58:49.162Z,80.26
2019-05-21T16:01:19.414Z,80.23
2019-05-21T16:03:47.037Z,80.18
2019-05-21T16:06:17.578Z,80.48
2019-05-21T16:08:45.157Z,80.48
2019-05-21T16:11:27.377Z,80.47
2019-05-21T16:13:42.335Z,80.43
2019-05-21T16:16:09.943Z,80.43
2019-05-21T16:18:37.870Z,80.40
2019-05-21T16:21:08.494Z,80.36
2019-05-21T16:23:36.084Z,80.27
2019-05-21T16:26:03.743Z,80.27
2019-05-21T16:28:33.600Z,80.56
2019-05-21T16:31:06.792Z,80.56
2019-05-21T16:33:34.818Z,80.36
2019-05-21T16:36:05.537Z,80.31
2019-05-21T16:38:33.156Z,80.32
2019-05-21T16:41:00.732Z,80.32
2019-05-21T16:43:30.239Z,80.41
2019-05-21T16:46:04.891Z,80.50
2019-05-21T16:48:32.586Z,80.50
2019-05-21T16:51:00.493Z,80.63
2019-05-21T16:53:34.311Z,80.64
2019-05-21T16:56:02.233Z,80.64
2019-05-21T16:58:30.379Z,80.18
2019-05-21T17:00:58.244Z,80.75
2019-05-21T17:03:26.865Z,80.75
2019-05-21T17:05:59.118Z,80.83
2019-05-21T17:08:28.113Z,80.83
2019-05-21T17:10:55.773Z,80.90
2019-05-21T17:13:32.864Z,80.90
2019-05-21T17:16:00.450Z,80.82
2019-05-21T17:18:30.199Z,80.82
2019-05-21T17:21:07.149Z,80.85
2019-05-21T17:23:37.502Z,80.84
2019-05-21T17:26:13.338Z,80.81
2019-05-21T17:28:39.284Z,80.77
2019-05-21T17:31:09.130Z,80.77
2019-05-21T17:33:37.575Z,80.83
2019-05-21T17:36:06.418Z,80.89
2019-05-21T17:38:33.999Z,81.12
2019-05-21T17:41:01.966Z,81.12
2019-05-21T17:43:29.602Z,81.05
2019-05-21T17:46:01.103Z,81.12
2019-05-21T17:48:31.091Z,81.13
2019-05-21T17:51:00.705Z,81.14
2019-05-21T17:53:28.736Z,81.19
2019-05-21T17:56:03.482Z,81.28
2019-05-21T17:58:31.136Z,81.37
2019-05-21T18:01:04.012Z,81.47
2019-05-21T18:03:32.044Z,81.47
2019-05-21T18:06:00.198Z,81.65
2019-05-21T18:08:28.114Z,81.65
2019-05-21T18:10:55.856Z,81.18
2019-05-21T18:13:23.476Z,81.18
2019-05-21T18:15:56.843Z,81.60
2019-05-21T18:18:24.995Z,81.64
2019-05-21T18:20:55.795Z,81.64
2019-05-21T18:23:38.310Z,81.47
2019-05-21T18:26:05.894Z,81.56
2019-05-21T18:28:36.858Z,81.56
2019-05-21T18:31:07.318Z,81.73
2019-05-21T18:33:35.175Z,81.77
2019-05-21T18:36:09.021Z,81.78
2019-05-21T18:38:38.420Z,81.78
2019-05-21T18:41:15.629Z,81.76
2019-05-21T18:43:43.362Z,81.72
2019-05-21T18:46:11.359Z,81.58
2019-05-21T18:48:40.885Z,81.58
2019-05-21T18:51:08.456Z,81.64
2019-05-21T18:53:36.478Z,81.59
2019-05-21T18:56:04.089Z,81.59
2019-05-21T18:58:31.766Z,81.54
2019-05-21T19:00:59.630Z,81.64
2019-05-21T19:03:34.475Z,81.63
2019-05-21T19:06:02.443Z,81.54
2019-05-21T19:08:30.169Z,81.60
2019-05-21T19:10:57.933Z,81.88
2019-05-21T19:13:25.952Z,81.64
2019-05-21T19:15:55.464Z,81.64
2019-05-21T19:18:23.089Z,81.67
2019-05-21T19:20:50.992Z,81.47
2019-05-21T19:23:21.840Z,81.47
2019-05-21T19:25:53.060Z,81.65
2019-05-21T19:28:30.330Z,81.64
2019-05-21T19:30:57.922Z,81.57
2019-05-21T19:33:25.914Z,81.57
2019-05-21T19:35:55.207Z,81.69
2019-05-21T19:38:25.129Z,81.69
2019-05-21T19:40:55.993Z,81.66
2019-05-21T19:43:48.710Z,81.64
2019-05-21T19:46:14.138Z,81.66
2019-05-21T19:49:00.494Z,81.43
2019-05-21T19:51:46.956Z,81.43
2019-05-21T19:54:14.721Z,81.60
2019-05-21T19:56:42.475Z,81.55
2019-05-21T19:59:28.891Z,81.52
2019-05-21T20:04:50.171Z,81.47
2019-05-21T20:10:24.606Z,81.45
2019-05-21T20:13:11.014Z,81.49
2019-05-21T20:15:58.416Z,81.54
2019-05-21T20:18:44.785Z,81.64
2019-05-21T20:21:31.227Z,81.70
2019-05-21T20:27:05.840Z,81.79
2019-05-21T20:32:40.269Z,81.86
2019-05-21T20:35:49.280Z,82.01
2019-05-21T20:38:15.088Z,81.81
2019-05-21T20:43:34.637Z,81.71
2019-05-21T20:46:21.093Z,81.99
2019-05-21T20:49:07.534Z,81.99
2019-05-21T20:54:59.132Z,82.01
2019-05-21T21:05:47.392Z,81.97
2019-05-21T21:08:15.159Z,81.72
2019-05-21T21:13:23.677Z,82.04
2019-05-21T21:21:23.337Z,82.10
2019-05-21T21:42:36.722Z,82.18
2019-05-21T21:45:04.417Z,82.18
2019-05-21T21:47:32.088Z,81.96
2019-05-21T21:50:18.540Z,81.93
2019-05-21T21:53:05.272Z,81.91
2019-05-21T21:55:51.706Z,81.91
2019-05-21T21:58:19.479Z,81.90
2019-05-21T22:14:31.914Z,81.88
2019-05-21T22:17:18.291Z,81.92
2019-05-21T22:22:39.208Z,82.04
2019-05-21T22:25:08.866Z,82.04
2019-05-21T22:27:38.931Z,82.05
2019-05-21T22:30:06.758Z,82.07
2019-05-21T22:35:08.629Z,82.39
2019-05-21T22:37:36.411Z,82.22
2019-05-21T22:40:04.115Z,82.22
2019-05-21T22:42:50.524Z,82.39
2019-05-21T22:48:25.322Z,82.17
2019-05-21T22:50:53.002Z,82.18
2019-05-21T22:53:21.192Z,82.30
2019-05-21T22:56:07.600Z,82.30
2019-05-21T23:01:27.499Z,82.57
2019-05-21T23:04:13.930Z,82.32
2019-05-21T23:09:44.118Z,82.51
2019-05-21T23:12:18.191Z,82.52
2019-05-21T23:17:48.753Z,82.56
2019-05-21T23:25:44.234Z,82.47
2019-05-21T23:28:14.054Z,82.37
2019-05-21T23:30:41.712Z,82.64
2019-05-21T23:46:11.409Z,82.73
2019-05-21T23:53:48.319Z,82.73
2019-05-21T23:56:34.979Z,82.52
2019-05-21T23:59:02.897Z,82.52
